createdAt,value
2019-01-14T00:02:18.855Z,95.50
2019-01-14T00:04:47.118Z,95.80
2019-01-14T00:07:15.433Z,95.10
2019-01-14T00:09:43.682Z,95.00
2019-01-14T00:12:11.964Z,95.00
2019-01-14T00:14:40.206Z,94.80
2019-01-14T00:17:08.459Z,95.30
2019-01-14T00:19:36.692Z,95.20
2019-01-14T00:22:05.036Z,95.60
2019-01-14T00:24:33.278Z,96.20
2019-01-14T00:27:01.775Z,96.60
2019-01-14T00:29:30.132Z,96.90
2019-01-14T00:31:58.649Z,97.40
2019-01-14T00:34:27.067Z,97.60
2019-01-14T00:36:55.349Z,97.90
2019-01-14T00:39:23.582Z,98.10
2019-01-14T00:41:54.403Z,98.20
2019-01-14T00:44:22.647Z,98.10
2019-01-14T00:46:50.891Z,97.90
2019-01-14T00:49:19.159Z,96.80
2019-01-14T00:51:47.403Z,96.80
2019-01-14T00:54:15.648Z,96.60
2019-01-14T00:56:43.887Z,96.70
2019-01-14T00:59:12.131Z,96.80
2019-01-14T01:01:40.368Z,96.30
2019-01-14T01:04:08.621Z,96.80
2019-01-14T01:06:36.862Z,97.00
2019-01-14T01:09:07.734Z,97.20
2019-01-14T01:11:35.993Z,97.50
2019-01-14T01:14:04.253Z,96.70
2019-01-14T01:16:32.490Z,96.70
2019-01-14T01:19:00.750Z,96.70
2019-01-14T01:21:29.058Z,95.50
2019-01-14T01:23:57.299Z,94.20
2019-01-14T01:26:25.534Z,94.20
2019-01-14T01:28:53.814Z,93.80
2019-01-14T01:31:22.067Z,93.50
2019-01-14T01:33:50.589Z,92.70
2019-01-14T01:36:18.824Z,93.40
2019-01-14T01:38:47.067Z,93.80
2019-01-14T01:41:15.326Z,94.00
2019-01-14T01:43:43.585Z,94.20
2019-01-14T01:46:11.834Z,94.90
2019-01-14T01:48:40.248Z,93.80
2019-01-14T01:51:08.548Z,92.60
2019-01-14T01:53:36.796Z,91.30
2019-01-14T01:56:05.031Z,91.20
2019-01-14T01:58:33.286Z,91.40
2019-01-14T02:01:01.544Z,90.70
2019-01-14T02:03:29.811Z,89.00
2019-01-14T02:05:58.058Z,88.70
2019-01-14T02:08:26.307Z,89.00
2019-01-14T02:10:54.573Z,87.70
2019-01-14T02:13:22.898Z,88.00
2019-01-14T02:15:51.411Z,87.90
2019-01-14T02:18:20.621Z,86.50
2019-01-14T02:20:48.855Z,85.40
2019-01-14T02:23:17.123Z,86.00
2019-01-14T02:25:45.369Z,86.90
2019-01-14T02:28:13.627Z,88.40
2019-01-14T02:30:41.952Z,87.00
2019-01-14T02:33:10.231Z,86.30
2019-01-14T02:35:38.656Z,86.80
2019-01-14T02:38:06.973Z,88.20
2019-01-14T02:40:35.240Z,88.10
2019-01-14T02:43:03.487Z,89.20
2019-01-14T02:45:31.737Z,89.70
2019-01-14T02:48:00.005Z,89.70
2019-01-14T02:50:28.247Z,89.60
2019-01-14T02:52:56.487Z,88.60
2019-01-14T02:55:24.750Z,88.00
2019-01-14T02:57:52.987Z,88.40
2019-01-14T03:00:23.498Z,89.10
2019-01-14T03:02:51.778Z,89.50
2019-01-14T03:05:20.790Z,89.60
2019-01-14T03:07:49.033Z,89.10
2019-01-14T03:10:17.297Z,88.70
2019-01-14T03:12:45.619Z,89.20
2019-01-14T03:15:15.612Z,90.10
2019-01-14T03:17:43.855Z,90.30
2019-01-14T03:20:14.762Z,90.20
2019-01-14T03:22:43.009Z,90.30
2019-01-14T03:25:11.504Z,88.90
2019-01-14T03:27:39.732Z,89.40
2019-01-14T03:30:10.742Z,88.70
2019-01-14T03:32:39.061Z,88.10
2019-01-14T03:35:08.160Z,87.10
2019-01-14T03:37:36.393Z,87.00
2019-01-14T03:40:07.655Z,86.30
2019-01-14T03:42:35.906Z,86.10
2019-01-14T03:45:04.692Z,86.60
2019-01-14T03:47:32.932Z,85.70
2019-01-14T03:50:01.179Z,84.40
2019-01-14T03:52:29.421Z,85.20
2019-01-14T03:54:57.727Z,85.80
2019-01-14T03:57:25.959Z,85.30
2019-01-14T03:59:54.210Z,86.40
2019-01-14T04:02:22.443Z,88.00
2019-01-14T04:04:50.981Z,87.60
2019-01-14T04:07:19.233Z,88.20
2019-01-14T04:09:47.479Z,88.30
2019-01-14T04:12:15.733Z,88.00
2019-01-14T04:14:44.077Z,89.20
2019-01-14T04:17:12.378Z,87.90
2019-01-14T04:19:40.650Z,85.90
2019-01-14T04:22:08.882Z,86.60
2019-01-14T04:24:37.123Z,88.00
2019-01-14T04:27:05.387Z,85.80
2019-01-14T04:29:33.683Z,86.30
2019-01-14T04:32:01.945Z,84.50
2019-01-14T04:34:30.219Z,82.10
2019-01-14T04:36:58.456Z,82.80
2019-01-14T04:39:26.878Z,82.80
2019-01-14T04:41:55.143Z,81.80
2019-01-14T04:44:23.460Z,82.20
2019-01-14T04:46:51.713Z,82.20
2019-01-14T04:49:20.884Z,80.70
2019-01-14T04:51:49.114Z,79.20
2019-01-14T04:54:17.359Z,79.60
2019-01-14T04:56:45.621Z,79.00
2019-01-14T04:59:13.878Z,80.30
2019-01-14T05:01:42.126Z,80.00
2019-01-14T05:04:10.419Z,81.50
2019-01-14T05:06:38.690Z,82.90
2019-01-14T05:09:07.711Z,83.70
2019-01-14T05:11:35.975Z,85.00
2019-01-14T05:14:04.237Z,86.00
2019-01-14T05:16:32.477Z,87.60
2019-01-14T05:19:00.701Z,88.10
2019-01-14T05:21:28.968Z,88.40
2019-01-14T05:23:57.202Z,88.90
2019-01-14T05:26:25.451Z,89.80
2019-01-14T05:28:53.701Z,90.20
2019-01-14T05:31:21.961Z,90.50
2019-01-14T05:33:51.131Z,94.60
2019-01-14T05:36:19.391Z,93.10
2019-01-14T05:38:47.641Z,93.10
2019-01-14T05:41:15.892Z,92.70
2019-01-14T05:43:44.127Z,92.80
2019-01-14T05:46:12.383Z,92.70
2019-01-14T05:48:40.820Z,91.30
2019-01-14T05:51:09.230Z,87.00
2019-01-14T05:53:37.527Z,81.80
2019-01-14T05:56:05.781Z,82.60
2019-01-14T05:58:34.045Z,81.30
2019-01-14T06:01:02.469Z,78.40
2019-01-14T06:03:30.888Z,75.00
2019-01-14T06:05:59.182Z,73.80
2019-01-14T06:08:27.426Z,74.50
2019-01-14T06:10:55.680Z,72.80
2019-01-14T06:13:23.916Z,72.60
2019-01-14T06:15:52.451Z,72.90
2019-01-14T06:18:21.241Z,72.80
2019-01-14T06:20:49.487Z,72.50
2019-01-14T06:23:17.754Z,72.60
2019-01-14T06:25:46.077Z,73.00
2019-01-14T06:28:14.372Z,73.60
2019-01-14T06:30:42.628Z,74.70
2019-01-14T06:33:10.896Z,73.70
2019-01-14T06:35:39.147Z,72.50
2019-01-14T06:38:07.385Z,73.20
2019-01-14T06:40:35.634Z,73.30
2019-01-14T06:43:04.141Z,74.20
2019-01-14T06:45:32.468Z,74.90
2019-01-14T06:48:00.714Z,74.70
2019-01-14T06:50:28.977Z,74.70
2019-01-14T06:52:57.225Z,74.80
2019-01-14T06:55:25.472Z,74.90
2019-01-14T06:57:53.838Z,75.10
2019-01-14T07:00:24.222Z,76.00
2019-01-14T07:02:52.474Z,75.10
2019-01-14T07:05:21.346Z,75.80
2019-01-14T07:07:49.597Z,75.80
2019-01-14T07:10:22.950Z,75.30
2019-01-14T07:12:51.318Z,76.30
2019-01-14T07:15:19.565Z,75.90
2019-01-14T07:17:48.297Z,76.00
2019-01-14T07:20:16.976Z,75.10
2019-01-14T07:22:45.226Z,75.80
2019-01-14T07:25:13.757Z,76.40
2019-01-14T07:27:42.266Z,77.80
2019-01-14T07:30:16.138Z,77.50
2019-01-14T07:32:44.367Z,77.30
2019-01-14T07:35:12.637Z,78.60
2019-01-14T07:37:40.898Z,77.90
2019-01-14T07:40:11.767Z,78.40
2019-01-14T07:42:40.019Z,77.80
2019-01-14T07:45:10.727Z,79.60
2019-01-14T07:47:38.972Z,79.70
2019-01-14T07:50:09.658Z,80.30
2019-01-14T07:52:38.182Z,81.10
2019-01-14T07:55:06.423Z,80.50
2019-01-14T07:57:34.679Z,80.90
2019-01-14T08:00:04.866Z,81.50
2019-01-14T08:02:33.121Z,80.80
2019-01-14T08:05:01.372Z,81.40
2019-01-14T08:07:29.620Z,80.30
2019-01-14T08:09:57.868Z,80.30
2019-01-14T08:12:26.122Z,79.70
2019-01-14T08:14:54.447Z,79.70
2019-01-14T08:17:22.728Z,78.40
2019-01-14T08:19:51.526Z,78.60
2019-01-14T08:22:19.793Z,78.50
2019-01-14T08:24:48.031Z,78.00
2019-01-14T08:27:16.302Z,78.20
2019-01-14T08:29:44.551Z,77.20
2019-01-14T08:32:12.799Z,77.20
2019-01-14T08:34:41.054Z,78.30
2019-01-14T08:37:09.313Z,75.60
2019-01-14T08:39:37.581Z,75.40
2019-01-14T08:42:06.234Z,75.40
2019-01-14T08:44:36.133Z,75.70
2019-01-14T08:47:04.395Z,76.50
2019-01-14T08:49:32.641Z,76.90
2019-01-14T08:52:00.888Z,76.70
2019-01-14T08:54:29.219Z,76.70
2019-01-14T08:56:57.464Z,77.10
2019-01-14T08:59:25.703Z,77.20
2019-01-14T09:01:53.963Z,78.60
2019-01-14T09:04:24.304Z,79.50
2019-01-14T09:06:52.278Z,80.00
2019-01-14T09:09:20.524Z,80.60
2019-01-14T09:11:48.789Z,79.30
2019-01-14T09:14:17.038Z,79.00
2019-01-14T09:16:45.302Z,79.50
2019-01-14T09:19:13.545Z,79.80
2019-01-14T09:21:41.815Z,78.90
2019-01-14T09:24:10.061Z,78.90
2019-01-14T09:26:38.614Z,78.80
2019-01-14T09:29:06.850Z,78.60
2019-01-14T09:31:35.272Z,77.60
2019-01-14T09:34:05.196Z,77.60
2019-01-14T09:36:33.537Z,76.20
2019-01-14T09:39:01.791Z,75.80
2019-01-14T09:41:30.059Z,73.10
2019-01-14T09:44:19.338Z,73.70
2019-01-14T09:46:47.587Z,73.10
2019-01-14T09:49:15.819Z,72.10
2019-01-14T09:51:44.105Z,73.10
2019-01-14T09:54:12.347Z,74.80
2019-01-14T09:56:40.613Z,74.20
2019-01-14T09:59:08.866Z,72.60
2019-01-14T10:01:37.133Z,73.30
2019-01-14T10:04:05.454Z,72.50
2019-01-14T10:06:33.695Z,71.50
2019-01-14T10:09:01.949Z,70.90
2019-01-14T10:11:30.215Z,69.70
2019-01-14T10:13:58.461Z,69.70
2019-01-14T10:16:26.714Z,68.20
2019-01-14T10:18:54.981Z,67.30
2019-01-14T10:21:23.250Z,64.40
2019-01-14T10:23:51.925Z,62.60
2019-01-14T10:26:20.170Z,64.20
2019-01-14T10:28:48.460Z,65.20
2019-01-14T10:31:22.445Z,62.60
2019-01-14T10:33:51.669Z,61.10
2019-01-14T10:36:19.919Z,63.20
2019-01-14T10:38:50.455Z,61.40
2019-01-14T10:41:18.198Z,62.10
2019-01-14T10:43:46.662Z,53.40
2019-01-14T10:46:14.898Z,56.20
2019-01-14T10:48:43.140Z,58.00
2019-01-14T10:51:11.414Z,57.80
2019-01-14T10:53:39.659Z,57.50
2019-01-14T10:56:07.909Z,57.80
2019-01-14T10:58:36.178Z,57.80
2019-01-14T11:01:04.406Z,57.20
2019-01-14T11:03:32.655Z,54.00
2019-01-14T11:06:00.890Z,53.10
2019-01-14T11:08:29.137Z,51.70
2019-01-14T11:10:57.378Z,53.70
2019-01-14T11:13:25.647Z,53.30
2019-01-14T11:15:53.879Z,53.30
2019-01-14T11:18:22.127Z,50.60
2019-01-14T11:20:50.374Z,52.10
2019-01-14T11:23:18.624Z,53.90
2019-01-14T11:25:46.875Z,52.40
2019-01-14T11:28:15.146Z,52.10
2019-01-14T11:30:43.453Z,53.90
2019-01-14T11:33:11.691Z,52.00
2019-01-14T11:35:39.924Z,52.80
2019-01-14T11:38:11.439Z,51.40
2019-01-14T11:40:39.673Z,51.00
2019-01-14T11:43:08.068Z,54.10
2019-01-14T11:45:36.303Z,52.10
2019-01-14T11:48:04.618Z,50.40
2019-01-14T11:50:32.859Z,51.00
2019-01-14T11:53:01.135Z,51.30
2019-01-14T11:55:29.372Z,52.10
2019-01-14T11:57:57.636Z,51.40
2019-01-14T12:00:26.540Z,51.50
2019-01-14T12:02:54.829Z,49.90
2019-01-14T12:05:23.065Z,49.90
2019-01-14T12:07:51.997Z,51.20
2019-01-14T12:10:20.240Z,50.50
2019-01-14T12:12:48.498Z,50.60
2019-01-14T12:15:22.233Z,50.00
2019-01-14T12:17:50.479Z,50.00
2019-01-14T12:20:18.741Z,51.80
2019-01-14T12:22:46.988Z,51.00
2019-01-14T12:25:15.332Z,49.60
2019-01-14T12:27:43.577Z,50.80
2019-01-14T12:30:20.845Z,50.40
2019-01-14T12:32:49.086Z,51.70
2019-01-14T12:35:17.333Z,50.30
2019-01-14T12:37:45.690Z,50.40
2019-01-14T12:40:13.968Z,48.00
2019-01-14T12:42:42.209Z,47.60
2019-01-14T12:45:13.422Z,47.50
2019-01-14T12:47:41.654Z,48.80
2019-01-14T12:50:12.613Z,48.60
2019-01-14T12:52:40.863Z,49.10
2019-01-14T12:55:11.262Z,49.00
2019-01-14T12:57:39.608Z,47.90
2019-01-14T13:00:19.606Z,47.30
2019-01-14T13:02:47.866Z,47.10
2019-01-14T13:05:17.086Z,49.50
2019-01-14T13:07:45.395Z,50.10
2019-01-14T13:10:14.888Z,50.00
2019-01-14T13:12:43.403Z,51.90
2019-01-14T13:15:14.193Z,56.50
2019-01-14T13:17:42.427Z,58.10
2019-01-14T13:20:15.541Z,57.70
2019-01-14T13:22:43.779Z,58.40
2019-01-14T13:25:12.208Z,68.90
2019-01-14T13:27:40.450Z,68.40
2019-01-14T13:30:16.979Z,71.30
2019-01-14T13:32:45.292Z,71.50
2019-01-14T13:35:13.554Z,71.40
2019-01-14T13:37:41.790Z,71.40
2019-01-14T13:40:11.995Z,68.80
2019-01-14T13:42:40.237Z,66.60
2019-01-14T13:45:17.000Z,66.70
2019-01-14T13:47:45.289Z,64.60
2019-01-14T13:50:24.245Z,60.70
2019-01-14T13:52:52.479Z,57.70
2019-01-14T13:55:20.730Z,57.80
2019-01-14T13:57:49.768Z,58.10
2019-01-14T14:00:22.900Z,58.80
2019-01-14T14:02:52.152Z,59.50
2019-01-14T14:05:20.407Z,61.00
2019-01-14T14:07:48.640Z,63.10
2019-01-14T14:10:25.254Z,63.60
2019-01-14T14:12:53.505Z,64.60
2019-01-14T14:15:22.279Z,64.30
2019-01-14T14:17:50.583Z,64.30
2019-01-14T14:20:19.193Z,66.20
2019-01-14T14:22:47.677Z,70.50
2019-01-14T14:25:15.995Z,82.10
2019-01-14T14:27:44.268Z,91.30
2019-01-14T14:30:28.076Z,93.90
2019-01-14T14:32:56.341Z,94.70
2019-01-14T14:35:24.600Z,95.00
2019-01-14T14:37:52.834Z,95.40
2019-01-14T14:40:21.101Z,95.20
2019-01-14T14:42:49.345Z,93.50
2019-01-14T14:45:17.604Z,92.00
2019-01-14T14:47:45.855Z,86.80
2019-01-14T14:50:18.275Z,81.30
2019-01-14T14:52:46.502Z,77.40
2019-01-14T14:55:14.762Z,65.40
2019-01-14T14:57:43.934Z,58.50
2019-01-14T15:00:22.186Z,58.50
2019-01-14T15:02:50.456Z,65.50
2019-01-14T15:05:18.782Z,82.40
2019-01-14T15:07:47.076Z,87.60
2019-01-14T15:10:18.338Z,90.10
2019-01-14T15:12:46.650Z,90.20
2019-01-14T15:15:16.548Z,90.10
2019-01-14T15:17:44.771Z,90.10
2019-01-14T15:20:18.183Z,88.60
2019-01-14T15:22:46.424Z,88.00
2019-01-14T15:25:14.750Z,87.20
2019-01-14T15:27:42.994Z,86.30
2019-01-14T15:30:23.366Z,85.50
2019-01-14T15:32:52.543Z,84.40
2019-01-14T15:35:20.794Z,83.30
2019-01-14T15:37:49.042Z,82.20
2019-01-14T15:40:18.340Z,82.20
2019-01-14T15:42:46.639Z,81.50
2019-01-14T15:45:16.932Z,80.90
2019-01-14T15:47:45.182Z,80.60
2019-01-14T15:50:13.517Z,79.60
2019-01-14T15:52:41.742Z,80.60
2019-01-14T15:55:18.584Z,79.60
2019-01-14T15:57:46.854Z,79.80
2019-01-14T16:00:17.706Z,80.20
2019-01-14T16:02:46.069Z,78.40
2019-01-14T16:05:14.855Z,77.90
2019-01-14T16:07:43.126Z,77.10
2019-01-14T16:10:14.495Z,77.50
2019-01-14T16:12:42.794Z,77.10
2019-01-14T16:15:11.953Z,77.30
2019-01-14T16:17:40.204Z,76.40
2019-01-14T16:20:11.815Z,76.10
2019-01-14T16:22:40.118Z,75.80
2019-01-14T16:25:09.017Z,74.20
2019-01-14T16:27:37.366Z,73.00
2019-01-14T16:30:21.779Z,71.30
2019-01-14T16:32:50.090Z,70.00
2019-01-14T16:35:18.357Z,69.20
2019-01-14T16:37:46.624Z,69.60
2019-01-14T16:40:18.188Z,67.80
2019-01-14T16:42:45.896Z,68.60
2019-01-14T16:45:16.853Z,66.90
2019-01-14T16:47:45.083Z,66.80
2019-01-14T16:50:14.682Z,66.00
2019-01-14T16:52:42.936Z,66.70
2019-01-14T16:55:12.454Z,67.30
2019-01-14T16:57:40.719Z,66.60
2019-01-14T17:00:14.862Z,66.00
2019-01-14T17:02:43.210Z,65.20
2019-01-14T17:05:13.626Z,65.50
2019-01-14T17:07:41.952Z,66.00
2019-01-14T17:10:12.761Z,66.20
2019-01-14T17:12:41.090Z,66.40
2019-01-14T17:15:09.359Z,65.30
2019-01-14T17:17:37.768Z,65.40
2019-01-14T17:20:09.275Z,65.90
2019-01-14T17:22:37.526Z,65.80
2019-01-14T17:25:06.170Z,66.00
2019-01-14T17:27:34.442Z,65.60
2019-01-14T17:30:02.707Z,65.40
2019-01-14T17:32:30.960Z,65.60
2019-01-14T17:34:59.218Z,65.50
2019-01-14T17:37:27.472Z,66.20
2019-01-14T17:39:55.719Z,65.80
2019-01-14T17:42:24.252Z,66.40
2019-01-14T17:44:52.838Z,66.80
2019-01-14T17:47:21.090Z,67.30
2019-01-14T17:49:49.323Z,67.90
2019-01-14T17:52:17.590Z,67.90
2019-01-14T17:54:45.838Z,68.60
2019-01-14T17:57:14.084Z,69.00
2019-01-14T17:59:42.319Z,69.00
2019-01-14T18:02:10.560Z,68.60
2019-01-14T18:04:38.788Z,69.50
2019-01-14T18:07:07.048Z,69.40
2019-01-14T18:09:35.292Z,69.40
2019-01-14T18:12:03.559Z,69.70
2019-01-14T18:14:31.787Z,69.60
2019-01-14T18:17:00.038Z,70.00
2019-01-14T18:19:28.284Z,70.40
2019-01-14T18:21:56.559Z,71.80
2019-01-14T18:24:24.779Z,70.90
2019-01-14T18:26:53.043Z,72.30
2019-01-14T18:29:21.281Z,72.40
2019-01-14T18:31:49.540Z,71.90
2019-01-14T18:34:17.767Z,71.90
2019-01-14T18:36:46.042Z,72.00
2019-01-14T18:39:14.299Z,73.00
2019-01-14T18:41:42.609Z,72.80
2019-01-14T18:44:10.851Z,72.50
2019-01-14T18:46:39.141Z,73.00
2019-01-14T18:49:07.472Z,72.20
2019-01-14T18:51:35.764Z,72.20
2019-01-14T18:54:04.025Z,72.20
2019-01-14T18:56:32.283Z,72.20
2019-01-14T18:59:00.542Z,72.70
2019-01-14T19:01:29.011Z,73.10
2019-01-14T19:03:57.369Z,73.90
2019-01-14T19:06:25.685Z,73.20
2019-01-14T19:08:53.931Z,73.40
2019-01-14T19:11:22.939Z,72.90
2019-01-14T19:13:51.207Z,73.30
2019-01-14T19:16:19.463Z,74.10
2019-01-14T19:18:47.721Z,73.20
2019-01-14T19:21:16.066Z,72.90
2019-01-14T19:23:44.359Z,73.50
2019-01-14T19:26:12.615Z,74.00
2019-01-14T19:28:40.866Z,73.80
2019-01-14T19:31:09.119Z,74.50
2019-01-14T19:33:37.385Z,74.80
2019-01-14T19:36:05.653Z,75.40
2019-01-14T19:38:33.909Z,76.10
2019-01-14T19:41:02.281Z,76.40
2019-01-14T19:43:30.598Z,76.60
2019-01-14T19:45:58.926Z,77.30
2019-01-14T19:48:27.186Z,77.70
2019-01-14T19:50:55.532Z,79.40
2019-01-14T19:53:23.788Z,77.60
2019-01-14T19:55:52.953Z,78.60
2019-01-14T19:58:21.218Z,79.50
2019-01-14T20:00:49.486Z,80.20
2019-01-14T20:03:17.727Z,80.40
2019-01-14T20:05:45.977Z,80.70
2019-01-14T20:08:15.861Z,80.60
2019-01-14T20:10:44.155Z,80.50
2019-01-14T20:13:12.435Z,81.00
2019-01-14T20:15:40.679Z,81.70
2019-01-14T20:18:09.030Z,82.50
2019-01-14T20:20:37.350Z,82.40
2019-01-14T20:23:05.673Z,82.70
2019-01-14T20:25:33.921Z,82.80
2019-01-14T20:28:02.171Z,83.20
2019-01-14T20:30:30.483Z,83.80
2019-01-14T20:32:58.813Z,84.20
2019-01-14T20:35:27.059Z,84.50
2019-01-14T20:37:55.323Z,83.80
2019-01-14T20:40:23.569Z,84.00
2019-01-14T20:42:51.856Z,84.00
2019-01-14T20:45:20.087Z,84.20
2019-01-14T20:47:48.345Z,84.40
2019-01-14T20:50:18.111Z,84.80
2019-01-14T20:52:46.405Z,85.00
2019-01-14T20:55:14.632Z,84.80
2019-01-14T20:57:42.893Z,84.80
2019-01-14T21:00:16.426Z,84.60
2019-01-14T21:02:44.685Z,85.20
2019-01-14T21:05:12.988Z,85.70
2019-01-14T21:07:41.243Z,86.40
2019-01-14T21:10:12.757Z,87.00
2019-01-14T21:12:41.137Z,87.30
2019-01-14T21:15:11.233Z,87.60
2019-01-14T21:17:39.467Z,88.50
2019-01-14T21:20:19.062Z,88.70
2019-01-14T21:22:47.378Z,89.30
2019-01-14T21:25:15.644Z,89.90
2019-01-14T21:27:43.915Z,90.00
2019-01-14T21:30:16.185Z,90.10
2019-01-14T21:32:44.435Z,89.80
2019-01-14T21:35:12.685Z,89.90
2019-01-14T21:37:40.977Z,90.20
2019-01-14T21:40:11.308Z,90.40
2019-01-14T21:42:39.805Z,90.60
2019-01-14T21:45:13.085Z,90.40
2019-01-14T21:47:41.327Z,90.40
2019-01-14T21:50:20.448Z,90.40
2019-01-14T21:52:48.695Z,90.60
2019-01-14T21:55:21.487Z,90.80
2019-01-14T21:57:49.743Z,90.50
2019-01-14T22:00:20.604Z,90.60
2019-01-14T22:02:48.855Z,90.50
2019-01-14T22:05:17.133Z,90.70
2019-01-14T22:07:45.743Z,91.00
2019-01-14T22:10:16.803Z,90.80
2019-01-14T22:12:45.065Z,91.00
2019-01-14T22:15:13.389Z,91.00
2019-01-14T22:17:41.632Z,90.90
2019-01-14T22:20:18.244Z,91.10
2019-01-14T22:22:46.559Z,91.00
2019-01-14T22:25:14.802Z,91.10
2019-01-14T22:27:43.147Z,91.30
2019-01-14T22:30:16.444Z,91.10
2019-01-14T22:32:44.695Z,91.00
2019-01-14T22:35:12.978Z,91.30
2019-01-14T22:37:41.224Z,91.20
2019-01-14T22:40:13.716Z,91.20
2019-01-14T22:42:42.013Z,91.20
2019-01-14T22:45:10.998Z,91.00
2019-01-14T22:47:39.253Z,91.10
2019-01-14T22:50:17.913Z,91.30
2019-01-14T22:52:46.153Z,91.40
2019-01-14T22:55:14.392Z,91.30
2019-01-14T22:57:42.654Z,91.30
2019-01-14T23:00:47.105Z,91.60
2019-01-14T23:03:15.363Z,91.40
2019-01-14T23:05:43.610Z,91.40
2019-01-14T23:08:12.019Z,91.50
2019-01-14T23:10:40.273Z,91.70
2019-01-14T23:13:08.542Z,92.00
2019-01-14T23:15:36.780Z,92.00
2019-01-14T23:18:05.046Z,91.90
2019-01-14T23:20:33.284Z,91.90
2019-01-14T23:23:01.555Z,92.00
2019-01-14T23:25:29.815Z,92.00
2019-01-14T23:27:58.065Z,92.00
2019-01-14T23:30:26.321Z,92.00
2019-01-14T23:32:54.571Z,92.20
2019-01-14T23:35:23.648Z,92.60
2019-01-14T23:37:51.951Z,92.50
2019-01-14T23:40:20.187Z,92.40
2019-01-14T23:42:48.435Z,92.50
2019-01-14T23:45:16.682Z,92.70
2019-01-14T23:47:45.001Z,92.60
2019-01-14T23:50:13.255Z,92.70
2019-01-14T23:52:41.495Z,92.80
2019-01-14T23:55:09.751Z,92.90
2019-01-14T23:57:37.985Z,92.80
